LHBP 170130Z 31007KT CAVOK 14/10 Q1012 NOSIG        

LHDC 170115Z AUTO 03009KT 9999 FEW003 17/10 Q1011        

LHKE 170115Z 30010KT CAVOK 16/10 Q1012 NOSIG RMK BLU        

LHPA 170115Z 00000KT CAVOK 12/11 Q1014 NOSIG RMK BLU        

LHPR 170115Z AUTO 28008KT CAVOK 12/09 Q1014        

LHSM 170115Z AUTO 32006KT 8000 NSC 16/13 Q1014        

LHSN 170115Z 29008KT 260V320 CAVOK 17/10 Q1011 NOSIG RMK BLU